Whiteman Air Force Base Knob noster US
ICAO: KSZL
IATA: SZL
Category: Large
Scheduled Services: No

Elevation: 870 ft
TransAlt. 18000 ft.

Airport Communications:
ARNG HAWK OPS:49.65
APP:127.45
ATIS:139.3
CLNC DEL:121.75
DEP:125.925
GND:128.275
303 TFS OPS:22.78
PMSV METRO:34.46
COMD POST:31.1
PTD:118.725
TWR:132.4

KSZL Zoom In..

If Map Doesn't Load, Click Here

Runways:

(A) RW 01 length 12400 ft width 200 ft
ILS 110.30 / hdg 7

(B) RW 19 length 12400 ft width 200 ft
ILS 108.50 / hdg 187

Location; KSZL
Day. 21 / Time. 14.56 Zulu
* Altimeter: 30.05
* Temperature: 22° c. 71.6°f.
* Wind from: 340° Speed 11 kn.
Dewpoint: 18° c.
Visibility: 10 Statute Miles.
Clouds: Scattered 1000 ft.
Clouds: Broken 2000 ft.

KSZL 211456Z 34011KT 10SM SCT010 BKN020 22/18 A3005 RMK AO2A SLP172 T02170183 52021


Wind From 340°
Speed 11 kn.

 
 
jpsmedia.com for Web Design worldairports.se 2018   terms of use